createdAt,value
2018-03-31T00:02:04.822Z,0.70
2018-03-31T00:04:33.723Z,0.87
2018-03-31T00:07:03.558Z,0.90
2018-03-31T00:09:31.273Z,0.90
2018-03-31T00:11:59.154Z,0.93
2018-03-31T00:14:27.748Z,0.87
2018-03-31T00:16:55.528Z,0.70
2018-03-31T00:19:23.294Z,0.97
2018-03-31T00:21:51.876Z,1.10
2018-03-31T00:24:19.091Z,0.70
2018-03-31T00:26:46.782Z,0.87
2018-03-31T00:29:15.002Z,0.73
2018-03-31T00:31:43.396Z,0.80
2018-03-31T00:34:12.438Z,1.00
2018-03-31T00:36:40.892Z,0.90
2018-03-31T00:39:09.390Z,1.00
2018-03-31T00:41:36.506Z,1.13
2018-03-31T00:44:04.595Z,0.90
2018-03-31T00:46:31.730Z,0.93
2018-03-31T00:48:59.630Z,1.00
2018-03-31T00:51:27.685Z,1.00
2018-03-31T00:53:57.469Z,0.80
2018-03-31T00:56:25.512Z,0.97
2018-03-31T00:58:52.948Z,0.90
2018-03-31T01:01:20.785Z,0.93
2018-03-31T01:03:49.572Z,0.90
2018-03-31T01:06:17.802Z,0.90
2018-03-31T01:08:45.732Z,0.67
2018-03-31T01:11:12.889Z,0.90
2018-03-31T01:13:40.018Z,0.90
2018-03-31T01:16:07.185Z,1.10
2018-03-31T01:18:34.328Z,0.73
2018-03-31T01:21:01.493Z,0.90
2018-03-31T01:23:28.606Z,0.83
2018-03-31T01:25:55.701Z,0.90
2018-03-31T01:28:22.820Z,0.83
2018-03-31T01:30:49.959Z,0.80
2018-03-31T01:33:17.056Z,0.90
2018-03-31T01:35:44.919Z,0.90
2018-03-31T01:38:12.847Z,0.67
2018-03-31T01:40:39.959Z,0.90
2018-03-31T01:43:07.068Z,1.00
2018-03-31T01:45:34.996Z,0.90
2018-03-31T01:48:02.084Z,1.00
2018-03-31T01:50:29.953Z,0.73
2018-03-31T01:52:57.822Z,0.80
2018-03-31T01:55:25.672Z,0.80
2018-03-31T01:57:52.764Z,0.97
2018-03-31T02:00:19.901Z,0.90
2018-03-31T02:02:47.017Z,0.90
2018-03-31T02:05:14.093Z,0.97
2018-03-31T02:07:41.203Z,0.80
2018-03-31T02:10:08.321Z,0.80
2018-03-31T02:12:35.452Z,0.90
2018-03-31T02:15:02.616Z,0.80
2018-03-31T02:17:29.720Z,1.00
2018-03-31T02:19:56.798Z,0.83
2018-03-31T02:22:23.898Z,0.90
2018-03-31T02:24:51.812Z,1.10
2018-03-31T02:27:19.365Z,1.00
2018-03-31T02:29:47.475Z,1.00
2018-03-31T02:32:14.592Z,1.17
2018-03-31T02:34:41.677Z,1.27
2018-03-31T02:37:08.787Z,1.00
2018-03-31T02:39:35.875Z,1.13
2018-03-31T02:42:03.735Z,1.03
2018-03-31T02:44:30.820Z,0.87
2018-03-31T02:46:57.931Z,0.93
2018-03-31T02:49:25.048Z,1.10
2018-03-31T02:51:52.143Z,1.40
2018-03-31T02:54:19.987Z,1.03
2018-03-31T02:56:47.113Z,0.97
2018-03-31T02:59:14.199Z,0.70
2018-03-31T03:01:42.059Z,0.77
2018-03-31T03:04:09.136Z,0.80
2018-03-31T03:06:36.233Z,1.00
2018-03-31T03:09:03.302Z,1.10
2018-03-31T03:11:31.173Z,0.80
2018-03-31T03:13:58.251Z,1.00
2018-03-31T03:16:25.360Z,1.00
2018-03-31T03:18:53.200Z,0.83
2018-03-31T03:21:20.331Z,0.90
2018-03-31T03:23:47.412Z,1.20
2018-03-31T03:26:15.340Z,1.10
2018-03-31T03:28:42.424Z,0.77
2018-03-31T03:31:10.368Z,0.87
2018-03-31T03:33:37.612Z,0.90
2018-03-31T03:36:04.683Z,0.70
2018-03-31T03:38:31.763Z,0.90
2018-03-31T03:40:58.839Z,0.73
2018-03-31T03:43:25.951Z,0.87
2018-03-31T03:45:53.020Z,0.73
2018-03-31T03:48:20.112Z,0.90
2018-03-31T03:50:47.207Z,0.73
2018-03-31T03:53:14.299Z,0.90
2018-03-31T03:55:41.378Z,1.00
2018-03-31T03:58:08.479Z,1.00
2018-03-31T04:00:35.719Z,0.87
2018-03-31T04:03:02.812Z,0.83
2018-03-31T04:05:30.659Z,1.00
2018-03-31T04:07:57.756Z,0.70
2018-03-31T04:10:24.848Z,1.00
2018-03-31T04:12:51.952Z,1.00
2018-03-31T04:15:19.051Z,0.80
2018-03-31T04:17:46.151Z,0.73
2018-03-31T04:20:13.236Z,0.77
2018-03-31T04:22:40.371Z,0.80
2018-03-31T04:25:07.447Z,0.90
2018-03-31T04:27:35.371Z,0.60
2018-03-31T04:30:02.461Z,0.90
2018-03-31T04:32:30.397Z,0.90
2018-03-31T04:34:57.501Z,0.70
2018-03-31T04:37:24.684Z,0.90
2018-03-31T04:39:51.760Z,0.67
2018-03-31T04:42:18.848Z,0.60
2018-03-31T04:44:45.918Z,0.90
2018-03-31T04:47:13.059Z,0.80
2018-03-31T04:49:40.127Z,0.73
2018-03-31T04:52:07.220Z,0.73
2018-03-31T04:54:35.099Z,0.70
2018-03-31T04:57:02.192Z,0.70
2018-03-31T04:59:29.272Z,0.80
2018-03-31T05:01:56.364Z,0.80
2018-03-31T05:04:23.431Z,0.73
2018-03-31T05:06:50.543Z,1.03
2018-03-31T05:09:17.677Z,1.03
2018-03-31T05:11:44.771Z,0.90
2018-03-31T05:14:11.853Z,0.70
2018-03-31T05:16:39.339Z,0.83
2018-03-31T05:19:06.420Z,0.70
2018-03-31T05:21:33.527Z,0.80
2018-03-31T05:24:00.591Z,1.00
2018-03-31T05:26:27.757Z,0.87
2018-03-31T05:28:54.872Z,0.70
2018-03-31T05:31:21.947Z,0.70
2018-03-31T05:33:49.043Z,0.57
2018-03-31T05:36:16.126Z,0.97
2018-03-31T05:38:43.220Z,0.90
2018-03-31T05:41:10.296Z,0.80
2018-03-31T05:43:37.600Z,0.70
2018-03-31T05:46:04.672Z,0.60
2018-03-31T05:48:31.765Z,0.80
2018-03-31T05:50:58.840Z,0.70
2018-03-31T05:53:25.944Z,0.50
2018-03-31T05:55:53.026Z,0.70
2018-03-31T05:58:20.193Z,0.70
2018-03-31T06:00:47.264Z,0.60
2018-03-31T06:03:15.120Z,0.70
2018-03-31T06:05:42.973Z,0.80
2018-03-31T06:08:10.073Z,0.60
2018-03-31T06:10:37.152Z,0.80
2018-03-31T06:13:04.256Z,0.83
2018-03-31T06:15:31.340Z,0.60
2018-03-31T06:17:58.526Z,0.70
2018-03-31T06:20:26.479Z,0.60
2018-03-31T06:22:53.585Z,0.53
2018-03-31T06:25:20.663Z,0.70
2018-03-31T06:27:48.547Z,0.70
2018-03-31T06:30:16.388Z,0.70
2018-03-31T06:32:43.616Z,0.70
2018-03-31T06:35:10.702Z,0.60
2018-03-31T06:37:38.572Z,0.73
2018-03-31T06:40:06.407Z,0.70
2018-03-31T06:42:33.537Z,0.70
2018-03-31T06:45:00.604Z,0.60
2018-03-31T06:47:27.736Z,0.80
2018-03-31T06:49:54.817Z,0.50
2018-03-31T06:52:22.068Z,0.50
2018-03-31T06:54:49.140Z,0.60
2018-03-31T06:57:16.288Z,0.80
2018-03-31T06:59:43.360Z,0.60
2018-03-31T07:02:10.492Z,0.70
2018-03-31T07:04:37.844Z,0.87
2018-03-31T07:07:05.036Z,0.50
2018-03-31T07:09:32.116Z,0.63
2018-03-31T07:11:59.978Z,0.37
2018-03-31T07:14:27.822Z,0.60
2018-03-31T07:16:54.931Z,0.77
2018-03-31T07:19:22.001Z,0.50
2018-03-31T07:21:49.092Z,0.60
2018-03-31T07:24:16.944Z,0.60
2018-03-31T07:26:44.899Z,0.70
2018-03-31T07:29:11.971Z,0.60
2018-03-31T07:31:39.840Z,0.50
2018-03-31T07:34:07.672Z,0.60
2018-03-31T07:36:34.770Z,0.43
2018-03-31T07:39:01.860Z,0.70
2018-03-31T07:41:28.947Z,0.30
2018-03-31T07:43:56.031Z,0.70
2018-03-31T07:46:23.116Z,0.60
2018-03-31T07:48:51.050Z,0.60
2018-03-31T07:51:18.131Z,0.60
2018-03-31T07:53:45.226Z,0.50
2018-03-31T07:56:12.296Z,0.30
2018-03-31T07:58:39.404Z,0.50
2018-03-31T08:01:06.486Z,0.90
2018-03-31T08:03:33.584Z,0.40
2018-03-31T08:06:00.655Z,0.40
2018-03-31T08:08:27.747Z,0.30
2018-03-31T08:10:54.813Z,0.50
2018-03-31T08:13:22.675Z,0.70
2018-03-31T08:15:49.740Z,0.40
2018-03-31T08:18:16.836Z,0.67
2018-03-31T08:20:44.029Z,0.40
2018-03-31T08:23:11.137Z,0.60
2018-03-31T08:25:38.451Z,0.43
2018-03-31T08:28:05.537Z,0.40
2018-03-31T08:30:32.619Z,0.60
2018-03-31T08:32:59.711Z,0.40
2018-03-31T08:39:05.407Z,0.60
2018-03-31T08:41:34.008Z,0.47
2018-03-31T08:44:01.078Z,0.50
2018-03-31T08:46:28.256Z,0.70
2018-03-31T08:48:55.380Z,0.50
2018-03-31T08:51:22.487Z,0.43
2018-03-31T08:53:49.557Z,0.70
2018-03-31T08:56:16.634Z,0.40
2018-03-31T08:58:43.727Z,0.50
2018-03-31T09:01:11.236Z,0.50
2018-03-31T09:03:39.103Z,0.70
2018-03-31T09:06:06.982Z,0.37
2018-03-31T09:08:34.125Z,0.50
2018-03-31T09:11:01.223Z,0.33
2018-03-31T09:13:28.424Z,0.60
2018-03-31T09:15:55.551Z,0.50
2018-03-31T09:18:22.645Z,0.50
2018-03-31T09:20:49.717Z,0.53
2018-03-31T09:23:17.566Z,0.40
2018-03-31T09:25:44.967Z,0.53
2018-03-31T09:28:12.091Z,0.57
2018-03-31T09:30:39.375Z,0.53
2018-03-31T09:33:07.025Z,0.50
2018-03-31T09:35:34.379Z,0.53
2018-03-31T09:38:02.550Z,0.40
2018-03-31T09:40:29.643Z,0.60
2018-03-31T09:42:56.756Z,0.40
2018-03-31T09:45:23.832Z,0.53
2018-03-31T09:47:51.172Z,0.60
2018-03-31T09:50:19.101Z,0.40
2018-03-31T09:52:47.389Z,0.40
2018-03-31T09:55:14.530Z,0.40
2018-03-31T09:57:42.380Z,0.30
2018-03-31T10:00:09.580Z,0.60
2018-03-31T10:02:37.569Z,0.40
2018-03-31T10:05:04.684Z,0.30
2018-03-31T10:07:31.997Z,0.60
2018-03-31T10:09:59.113Z,0.53
2018-03-31T10:12:27.101Z,0.40
2018-03-31T10:14:54.791Z,0.50
2018-03-31T10:17:22.456Z,0.40
2018-03-31T10:19:49.530Z,0.30
2018-03-31T10:22:16.616Z,0.50
2018-03-31T10:24:44.477Z,0.50
2018-03-31T10:27:11.578Z,0.23
2018-03-31T10:29:38.917Z,0.50
2018-03-31T10:32:05.995Z,0.60
2018-03-31T10:34:33.831Z,0.50
2018-03-31T10:37:00.899Z,0.40
2018-03-31T10:39:27.986Z,0.40
2018-03-31T10:41:55.823Z,0.43
2018-03-31T10:44:24.674Z,0.40
2018-03-31T10:46:52.620Z,0.70
2018-03-31T10:49:20.316Z,0.40
2018-03-31T10:51:47.430Z,0.40
2018-03-31T10:54:14.521Z,0.40
2018-03-31T10:56:41.760Z,0.30
2018-03-31T10:59:10.331Z,0.40
2018-03-31T11:01:38.279Z,0.60
2018-03-31T11:04:05.372Z,0.47
2018-03-31T11:06:32.449Z,0.40
2018-03-31T11:09:00.323Z,0.63
2018-03-31T11:11:27.404Z,0.60
2018-03-31T11:13:54.522Z,0.40
2018-03-31T11:16:21.591Z,0.30
2018-03-31T11:18:48.764Z,0.30
2018-03-31T11:21:15.846Z,0.30
2018-03-31T11:23:43.724Z,0.47
2018-03-31T11:26:10.901Z,0.47
2018-03-31T11:28:38.027Z,0.53
2018-03-31T11:31:05.108Z,0.63
2018-03-31T11:33:32.357Z,0.50
2018-03-31T11:35:59.427Z,0.40
2018-03-31T11:38:26.515Z,0.50
2018-03-31T11:40:53.608Z,0.43
2018-03-31T11:43:20.795Z,0.50
2018-03-31T11:45:47.877Z,0.70
2018-03-31T11:48:14.957Z,0.40
2018-03-31T11:50:42.031Z,0.50
2018-03-31T11:53:09.104Z,0.40
2018-03-31T11:55:36.210Z,0.50
2018-03-31T11:58:03.283Z,0.50
2018-03-31T12:00:30.382Z,0.57
2018-03-31T12:02:57.455Z,0.60
2018-03-31T12:05:25.347Z,0.53
2018-03-31T12:07:52.414Z,0.70
2018-03-31T12:10:19.513Z,0.50
2018-03-31T12:12:46.588Z,0.43
2018-03-31T12:15:13.680Z,0.55
2018-03-31T12:17:40.803Z,0.60
2018-03-31T12:20:07.958Z,0.50
2018-03-31T12:22:35.513Z,0.50
2018-03-31T12:25:03.555Z,0.40
2018-03-31T12:27:30.620Z,0.60
2018-03-31T12:29:57.779Z,0.40
2018-03-31T12:32:24.894Z,0.60
2018-03-31T12:34:52.492Z,0.70
2018-03-31T12:37:20.550Z,0.47
2018-03-31T12:39:48.592Z,0.63
2018-03-31T12:42:15.885Z,0.60
2018-03-31T12:44:43.054Z,0.47
2018-03-31T12:47:11.005Z,0.30
2018-03-31T12:49:40.595Z,0.20
2018-03-31T12:52:07.816Z,0.50
2018-03-31T12:54:36.112Z,0.60
2018-03-31T12:57:06.164Z,0.50
2018-03-31T12:59:33.319Z,0.50
2018-03-31T13:02:02.183Z,0.50
2018-03-31T13:04:29.485Z,0.30
2018-03-31T13:06:57.383Z,0.40
2018-03-31T13:09:24.646Z,0.57
2018-03-31T13:11:51.863Z,0.60
2018-03-31T13:14:19.060Z,0.50
2018-03-31T13:16:46.162Z,0.60
2018-03-31T13:19:13.325Z,0.50
2018-03-31T13:21:40.436Z,0.50
2018-03-31T13:24:08.393Z,0.63
2018-03-31T13:26:35.511Z,0.50
2018-03-31T13:29:02.632Z,0.50
2018-03-31T13:31:29.860Z,0.50
2018-03-31T13:33:57.777Z,0.47
2018-03-31T13:36:24.945Z,0.40
2018-03-31T13:38:52.116Z,0.67
2018-03-31T13:41:19.200Z,0.50
2018-03-31T13:43:46.437Z,0.30
2018-03-31T13:46:13.540Z,0.50
2018-03-31T13:48:40.695Z,0.40
2018-03-31T13:51:07.868Z,0.40
2018-03-31T13:53:35.035Z,0.53
2018-03-31T13:56:02.239Z,0.40
2018-03-31T13:58:30.164Z,0.50
2018-03-31T14:00:57.350Z,0.43
2018-03-31T14:03:24.524Z,0.40
2018-03-31T14:05:52.451Z,0.43
2018-03-31T14:08:19.545Z,0.30
2018-03-31T14:10:47.458Z,0.50
2018-03-31T14:13:14.536Z,0.40
2018-03-31T14:15:43.289Z,0.50
2018-03-31T14:18:10.469Z,0.63
2018-03-31T14:20:37.911Z,0.40
2018-03-31T14:23:05.611Z,0.30
2018-03-31T14:25:32.803Z,0.50
2018-03-31T14:27:59.883Z,0.40
2018-03-31T14:30:27.225Z,0.40
2018-03-31T14:32:54.461Z,0.43
2018-03-31T14:35:21.890Z,0.47
2018-03-31T14:37:49.862Z,0.47
2018-03-31T14:40:17.181Z,0.40
2018-03-31T14:42:44.461Z,0.40
2018-03-31T14:45:11.537Z,0.40
2018-03-31T14:47:39.014Z,0.50
2018-03-31T14:50:06.953Z,0.33
2018-03-31T14:52:34.047Z,0.50
2018-03-31T14:55:01.212Z,0.50
2018-03-31T14:57:28.636Z,0.30
2018-03-31T14:59:56.631Z,0.40
2018-03-31T15:02:23.796Z,0.40
2018-03-31T15:04:51.025Z,0.40
2018-03-31T15:07:18.205Z,0.40
2018-03-31T15:09:45.355Z,0.50
2018-03-31T15:12:12.519Z,0.40
2018-03-31T15:14:40.836Z,0.43
2018-03-31T15:17:08.797Z,0.50
2018-03-31T15:19:37.917Z,0.30
2018-03-31T15:22:05.131Z,0.47
2018-03-31T15:24:33.086Z,0.40
2018-03-31T15:27:01.136Z,0.37
2018-03-31T15:29:29.053Z,0.50
2018-03-31T15:31:56.198Z,0.40
2018-03-31T15:34:23.293Z,0.43
2018-03-31T15:36:50.445Z,0.30
2018-03-31T15:39:17.896Z,0.30
2018-03-31T15:41:45.984Z,0.30
2018-03-31T15:44:14.587Z,0.30
2018-03-31T15:46:42.530Z,0.40
2018-03-31T15:49:09.825Z,0.40
2018-03-31T15:51:37.135Z,0.43
2018-03-31T15:54:04.305Z,0.40
2018-03-31T15:56:32.207Z,0.33
2018-03-31T15:58:59.277Z,0.37
2018-03-31T16:01:26.395Z,0.40
2018-03-31T16:03:53.513Z,0.37
2018-03-31T16:06:21.402Z,0.20
2018-03-31T16:08:49.056Z,0.30
2018-03-31T16:11:16.776Z,0.40
2018-03-31T16:13:43.931Z,0.43
2018-03-31T16:16:11.196Z,0.30
2018-03-31T16:18:39.050Z,0.50
2018-03-31T16:21:06.863Z,0.30
2018-03-31T16:23:34.264Z,0.43
2018-03-31T16:26:01.362Z,0.20
2018-03-31T16:28:28.523Z,0.37
2018-03-31T16:30:55.720Z,0.30
2018-03-31T16:33:22.863Z,0.40
2018-03-31T16:35:50.061Z,0.40
2018-03-31T16:38:17.139Z,0.33
2018-03-31T16:40:44.327Z,0.40
2018-03-31T16:43:12.190Z,0.30
2018-03-31T16:45:40.135Z,0.50
2018-03-31T16:48:07.272Z,0.30
2018-03-31T16:50:34.445Z,0.40
2018-03-31T16:53:02.360Z,0.30
2018-03-31T16:55:29.512Z,0.50
2018-03-31T16:57:56.679Z,0.30
2018-03-31T17:00:23.811Z,0.10
2018-03-31T17:02:50.927Z,0.40
2018-03-31T17:05:18.110Z,0.37
2018-03-31T17:07:45.242Z,0.33
2018-03-31T17:10:12.460Z,0.40
2018-03-31T17:12:40.629Z,0.40
2018-03-31T17:15:08.548Z,0.30
2018-03-31T17:17:36.675Z,0.40
2018-03-31T17:20:04.639Z,0.50
2018-03-31T17:22:32.560Z,0.30
2018-03-31T17:24:59.675Z,0.20
2018-03-31T17:27:26.850Z,0.33
2018-03-31T17:29:54.010Z,0.30
2018-03-31T17:32:22.509Z,0.30
2018-03-31T17:34:50.377Z,0.30
2018-03-31T17:37:18.354Z,0.37
2018-03-31T17:39:46.569Z,0.37
2018-03-31T17:42:13.782Z,0.40
2018-03-31T17:44:41.710Z,0.37
2018-03-31T17:47:09.987Z,0.50
2018-03-31T17:49:37.140Z,0.43
2018-03-31T17:52:04.911Z,0.30
2018-03-31T17:54:32.027Z,0.37
2018-03-31T17:56:59.166Z,0.20
2018-03-31T17:59:27.018Z,0.20
2018-03-31T18:01:54.122Z,0.27
2018-03-31T18:04:21.196Z,0.40
2018-03-31T18:06:48.338Z,0.20
2018-03-31T18:09:15.409Z,0.20
2018-03-31T18:11:42.481Z,0.30
2018-03-31T18:14:09.551Z,0.40
2018-03-31T18:16:36.624Z,0.30
2018-03-31T18:19:04.480Z,0.30
2018-03-31T18:21:32.379Z,0.33
2018-03-31T18:23:59.466Z,0.27
2018-03-31T18:26:26.548Z,0.30
2018-03-31T18:28:53.635Z,0.30
2018-03-31T18:31:20.699Z,0.30
2018-03-31T18:33:47.809Z,0.20
2018-03-31T18:36:14.888Z,0.20
2018-03-31T18:38:42.649Z,0.30
2018-03-31T18:41:09.787Z,0.20
2018-03-31T18:43:36.944Z,0.30
2018-03-31T18:46:04.184Z,0.33
2018-03-31T18:48:31.343Z,0.20
2018-03-31T18:50:58.560Z,0.37
2018-03-31T18:53:25.665Z,0.30
2018-03-31T18:55:52.797Z,0.20
2018-03-31T18:58:20.671Z,0.40
2018-03-31T19:00:47.798Z,0.30
2018-03-31T19:03:15.091Z,0.20
2018-03-31T19:05:42.991Z,0.40
2018-03-31T19:08:10.102Z,0.20
2018-03-31T19:10:38.257Z,0.33
2018-03-31T19:13:05.410Z,0.27
2018-03-31T19:15:33.111Z,0.30
2018-03-31T19:18:01.085Z,0.30
2018-03-31T19:20:28.263Z,0.30
2018-03-31T19:22:55.513Z,0.20
2018-03-31T19:25:28.221Z,0.10
2018-03-31T19:27:55.663Z,0.40
2018-03-31T19:30:22.792Z,0.30
2018-03-31T19:32:51.975Z,0.20
2018-03-31T19:35:20.304Z,0.20
2018-03-31T19:37:49.188Z,0.20
2018-03-31T19:40:17.856Z,0.20
2018-03-31T19:42:44.993Z,0.20
2018-03-31T19:45:12.242Z,0.30
2018-03-31T19:47:39.324Z,0.40
2018-03-31T19:50:07.174Z,0.40
2018-03-31T19:52:34.258Z,0.40
2018-03-31T19:55:01.426Z,0.27
2018-03-31T19:57:28.504Z,0.20
2018-03-31T19:59:56.244Z,0.20
2018-03-31T20:02:23.340Z,0.30
2018-03-31T20:04:51.184Z,0.20
2018-03-31T20:07:18.459Z,0.23
2018-03-31T20:09:45.629Z,0.13
2018-03-31T20:12:12.767Z,0.30
2018-03-31T20:14:39.963Z,0.23
2018-03-31T20:17:07.031Z,0.37
2018-03-31T20:19:34.102Z,0.20
2018-03-31T20:22:01.967Z,0.20
2018-03-31T20:24:29.114Z,0.30
2018-03-31T20:26:57.006Z,0.20
2018-03-31T20:29:24.111Z,0.40
2018-03-31T20:31:52.010Z,0.37
2018-03-31T20:34:19.112Z,0.20
2018-03-31T20:36:46.206Z,0.30
2018-03-31T20:39:13.386Z,0.50
2018-03-31T20:41:40.476Z,0.30
2018-03-31T20:44:08.491Z,0.40
2018-03-31T20:46:36.535Z,0.30
2018-03-31T20:49:03.639Z,0.47
2018-03-31T20:51:30.784Z,0.33
2018-03-31T20:53:57.865Z,0.30
2018-03-31T20:56:24.989Z,0.47
2018-03-31T20:58:52.923Z,0.40
2018-03-31T21:01:20.094Z,0.40
2018-03-31T21:03:47.213Z,0.20
2018-03-31T21:06:14.298Z,0.40
2018-03-31T21:08:41.400Z,0.40
2018-03-31T21:11:08.473Z,0.40
2018-03-31T21:13:35.554Z,0.37
2018-03-31T21:16:03.519Z,0.40
2018-03-31T21:18:34.269Z,0.50
2018-03-31T21:21:01.550Z,0.47
2018-03-31T21:23:28.650Z,0.50
2018-03-31T21:25:56.531Z,0.60
2018-03-31T21:28:23.659Z,0.30
2018-03-31T21:30:51.544Z,0.50
2018-03-31T21:33:18.632Z,0.40
2018-03-31T21:35:45.784Z,0.47
2018-03-31T21:38:12.913Z,0.50
2018-03-31T21:40:40.065Z,0.60
2018-03-31T21:43:07.143Z,0.70
2018-03-31T21:45:34.271Z,0.50
2018-03-31T21:48:01.609Z,0.70
2018-03-31T21:50:28.719Z,0.60
2018-03-31T21:52:56.568Z,0.90
2018-03-31T21:55:23.650Z,0.73
2018-03-31T21:57:50.747Z,0.77
2018-03-31T22:00:17.875Z,0.80
2018-03-31T22:02:44.975Z,0.83
2018-03-31T22:05:12.870Z,0.93
2018-03-31T22:07:39.976Z,0.90
2018-03-31T22:10:07.813Z,0.80
2018-03-31T22:12:34.906Z,0.57
2018-03-31T22:15:08.683Z,0.50
2018-03-31T22:17:35.881Z,0.70
2018-03-31T22:20:03.008Z,0.70
2018-03-31T22:22:30.150Z,0.50
2018-03-31T22:24:58.062Z,0.80
2018-03-31T22:27:25.216Z,0.80
2018-03-31T22:29:52.363Z,0.63
2018-03-31T22:32:19.439Z,0.70
2018-03-31T22:34:46.544Z,0.70
2018-03-31T22:37:13.615Z,0.70
2018-03-31T22:39:40.693Z,0.80
2018-03-31T22:42:08.560Z,0.60
2018-03-31T22:44:36.394Z,0.80
2018-03-31T22:47:03.521Z,0.60
2018-03-31T22:49:30.599Z,0.50
2018-03-31T22:51:57.687Z,0.97
2018-03-31T22:54:24.764Z,0.70
2018-03-31T22:56:51.852Z,0.53
2018-03-31T22:59:18.930Z,0.87
2018-03-31T23:01:46.023Z,0.90
2018-03-31T23:04:13.128Z,0.90
2018-03-31T23:06:40.255Z,0.70
2018-03-31T23:09:08.562Z,0.90
2018-03-31T23:11:35.926Z,0.70
2018-03-31T23:14:03.352Z,0.70
2018-03-31T23:16:30.925Z,0.70
2018-03-31T23:18:58.111Z,0.60
2018-03-31T23:21:26.256Z,0.67
2018-03-31T23:23:54.225Z,0.40
2018-03-31T23:26:21.866Z,0.50
2018-03-31T23:28:49.542Z,0.80
2018-03-31T23:31:16.681Z,0.70
2018-03-31T23:33:43.776Z,0.90
2018-03-31T23:36:10.877Z,0.73
2018-03-31T23:38:38.743Z,0.70
2018-03-31T23:41:06.509Z,0.83
2018-03-31T23:43:34.443Z,0.60
2018-03-31T23:46:02.766Z,0.77
2018-03-31T23:48:31.332Z,0.60
2018-03-31T23:50:59.795Z,0.50
2018-03-31T23:53:26.951Z,0.60
2018-03-31T23:55:54.646Z,0.70
2018-03-31T23:58:22.249Z,0.70
